Weather observations for the past three days for
St. Joseph, Rosecrans Memorial Airport
Imperial (Metric)
Date Time (cdt) Wind (mph) Vis. (mi.) Weather Sky Cond. Temperature (ºF) Relative Humidity Wind Chill (°F) Heat Index (°F) Pressure Precipitation (in)
Air Dwpt 6 hour altimeter (in) sea level (mb) 1 hr 3 hr 6 hr
Max. Min.
30 23:53 S 8 10.00 Fair CLR 82.9 63 51% 84 29.86 1010.1
30 22:53 S 12 10.00 Fair CLR 86 62.1 45% 87 29.85 1009.8
30 21:53 S 9 10.00 Fair CLR 86 63 46% 87 29.84 1009.5
30 20:53 S 8 10.00 Fair CLR 86 66 51% 88 29.83 1009.1
30 19:53 S 9 10.00 Fair CLR 88 66.9 50% 91 29.81 1008.4
30 18:53 S 10 10.00 Fair CLR 93.9 69.1 98.1 93 44% 99 29.81 1008.3
30 17:53 S 15 10.00 Fair CLR 96.1 66.9 39% 100 29.8 1008.2
30 16:53 S 16 G 22 10.00 Fair CLR 97 68 39% 102 29.81 1008.4
30 15:53 S 20 G 29 10.00 Fair CLR 97 68 39% 102 29.82 1008.6
30 14:53 S 15 G 25 10.00 Fair CLR 96.1 68 40% 101 29.84 1009.1
30 13:53 S 12 G 23 10.00 Fair CLR 95 68 41% 100 29.85 1009.8
30 12:53 S 15 G 23 10.00 Fair CLR 93 66.9 93 77 42% 97 29.86 1010.2
30 11:53 S 15 G 25 10.00 Fair CLR 89.1 66 47% 92 29.88 1010.8
30 10:53 S 16 G 26 10.00 Fair CLR 88 64.9 46% 90 29.88 1010.7
30 09:53 S 15 G 24 10.00 Partly Cloudy SCT120 84 64 51% 85 29.87 1010.6
30 08:53 S 14 G 24 10.00 Fair CLR 80.1 62.1 54% 81 29.87 1010.6
30 07:53 S 13 10.00 Fair CLR 79 61 54% 80 29.88 1011.0
30 06:53 S 12 10.00 Fair CLR 77 60.1 81 77 56% 79 29.89 1010.9
30 05:53 S 7 10.00 Fair CLR 78.1 60.1 54% 79 29.89 1011.2
30 04:53 S 9 10.00 Fair CLR 79 60.1 52% 80 29.89 1011.0
30 03:53 S 13 10.00 Fair CLR 81 61 51% 82 29.89 1010.9
30 02:53 S 8 10.00 Fair CLR 79 63 58% 81 29.88 1010.8
30 01:53 S 8 10.00 Fair CLR 78.1 64 62% 80 29.88 1010.8
30 00:53 S 8 10.00 Fair CLR 80.1 64 91 79 58% 82 29.88 1010.9
29 23:53 S 8 10.00 Fair CLR 81 64 57% 83 29.88 1010.9
29 22:53 S 12 10.00 Fair CLR 84 64 51% 85 29.89 1011.0
29 21:53 S 8 10.00 Fair CLR 81 66 61% 83 29.88 1011.0
29 20:53 S 7 10.00 Fair CLR 82 66.9 60% 85 29.87 1010.7
29 19:53 S 9 10.00 Fair CLR 86 66.9 53% 89 29.85 1010.0
29 18:53 S 10 10.00 Fair CLR 91 66.9 95 90 45% 94 29.85 1010.0
29 17:53 S 14 10.00 Fair CLR 93 66 41% 96 29.86 1010.3
29 16:53 S 16 G 25 10.00 Fair CLR 91.9 66 43% 95 29.87 1010.4
29 15:53 S 15 G 25 10.00 Fair CLR 93.9 66.9 41% 98 29.89 1011.0
29 14:53 S 16 G 25 10.00 Fair CLR 93 66 41% 96 29.91 1011.9
29 13:53 S 17 G 29 10.00 Fair CLR 93 64.9 40% 95 29.93 1012.5
29 12:53 S 20 G 28 10.00 Fair CLR 90 64 90 66.9 42% 91 29.95 1013.3
29 11:53 S 17 G 24 10.00 Fair CLR 86 64.9 49% 88 29.98 1014.2
29 10:53 S 13 G 21 10.00 Fair CLR 81 63 54% 82 30 1015.0
29 09:53 S 17 G 22 10.00 Fair CLR 78.1 62.1 58% 80 30.01 1015.3
29 08:53 S 10 10.00 Fair CLR 73.9 61 64% 30.02 1015.9
29 07:53 S 7 10.00 Fair CLR 70 60.1 71% 30.03 1016.2
29 06:53 S 6 10.00 Fair CLR 66.9 59 73 66.9 76% 30.02 1015.8
29 05:53 S 6 10.00 Fair CLR 68 59 73% 30.02 1015.7
29 04:53 S 9 10.00 Fair CLR 69.1 59 70% 30.03 1016.0
29 03:53 S 6 10.00 Fair CLR 69.1 60.1 73% 30.03 1016.2
29 02:53 S 8 10.00 Fair CLR 70 60.1 71% 30.04 1016.5
29 01:53 S 8 10.00 Fair CLR 72 60.1 66% 30.05 1016.7
29 00:53 S 8 10.00 Fair CLR 72 60.1 82.9 72 66% 30.05 1016.8
28 23:53 SE 7 10.00 Fair CLR 73.9 61 64% 30.06 1017.0
28 22:53 SE 9 10.00 Fair CLR 73.9 62.1 67% 30.05 1016.9
28 21:53 SE 9 10.00 Fair CLR 75.9 62.1 62% 78 30.06 1017.0
28 20:53 SE 8 10.00 Fair CLR 75.9 63 64% 78 30.05 1016.8
28 19:53 SE 8 10.00 Fair CLR 80.1 62.1 54% 81 30.04 1016.6
28 18:53 S 5 10.00 Fair CLR 82.9 63 86 82.9 51% 84 30.05 1017.0
28 17:53 S 9 10.00 Fair CLR 84.9 61 45% 85 30.06 1017.3
28 16:53 SE 8 10.00 Fair CLR 86 59 40% 85 30.06 1017.3
28 15:53 S 9 10.00 Fair CLR 86 60.1 42% 86 30.08 1018.0
28 14:53 S 10 10.00 Fair CLR 84.9 61 45% 85 30.11 1018.8
28 13:53 S 10 10.00 Fair CLR 84.9 60.1 43% 85 30.13 1019.5
28 12:53 S 9 10.00 Fair CLR 84 61 84 60.1 46% 84 30.15 1020.2 0.02
28 11:53 S 12 10.00 Fair CLR 82.9 61 48% 83 30.16 1020.6
28 10:53 S 6 10.00 Partly Cloudy SCT100 80.1 64 58% 82 30.17 1021.1
28 09:53 S 6 10.00 Fair CLR 75.9 64 67% 78 30.16 1020.8 0.02
28 08:53 Calm 0.00 Partly Cloudy FEW090 SCT120 69.1 64.9 87% 30.18 1021.6 0.02
28 07:53 Calm 8.00 Mostly Cloudy SCT080 BKN100 64.9 62.1 90% 30.17 1021.3
28 06:53 N 3 3.00 Fog/Mist BKN100 BKN120 60.1 60.1 62.1 57.9 100% 30.14 1019.9
28 05:53 Calm 10.00 Mostly Cloudy FEW002 BKN090 59 57.9 96% 30.12 1019.2
28 04:53 Calm 7.00 Partly Cloudy SCT003 59 57.9 96% 30.11 1019.1
28 03:53 Calm 9.00 Fair CLR 59 57.9 96% 30.12 1019.3
28 02:53 Calm 10.00 Fair CLR 61 60.1 97% 30.12 1019.5
28 01:53 Calm 10.00 Fair CLR 61 60.1 97% 30.12 1019.3
28 00:53 N 3 10.00 Fair CLR 62.1 61 80.1 62.1 96% 30.11 1018.9
Date Time (cdt) Wind (mph) Vis. (mi.) Weather Sky Cond. Air Dwpt Max. Min. Relative Humidity Wind Chill (°F) Heat Index (°F) altimeter (in) sea level (mb) 1 hr 3 hr 6 hr
6 hour
Temperature (ºF) Pressure Precipitation (in)